createdAt,value
2022-11-01T00:00:52.848Z,1005.04
2022-11-01T00:01:52.874Z,1005.03
2022-11-01T00:02:52.808Z,1005.05
2022-11-01T00:03:52.818Z,1005.00
2022-11-01T00:04:52.778Z,1005.00
2022-11-01T00:05:52.776Z,1005.00
2022-11-01T00:06:52.770Z,1004.99
2022-11-01T00:07:52.750Z,1004.97
2022-11-01T00:08:52.737Z,1004.97
2022-11-01T00:09:52.750Z,1004.97
2022-11-01T00:10:52.710Z,1004.96
2022-11-01T00:11:52.699Z,1004.97
2022-11-01T00:12:52.689Z,1005.00
2022-11-01T00:13:52.681Z,1004.95
2022-11-01T00:14:52.691Z,1004.96
2022-11-01T00:15:52.667Z,1004.96
2022-11-01T00:16:52.641Z,1004.90
2022-11-01T00:17:52.639Z,1004.88
2022-11-01T00:18:52.629Z,1004.90
2022-11-01T00:19:52.642Z,1004.93
2022-11-01T00:20:52.610Z,1004.95
2022-11-01T00:21:52.601Z,1004.95
2022-11-01T00:22:52.580Z,1004.92
2022-11-01T00:23:52.573Z,1004.99
2022-11-01T00:24:54.858Z,1004.99
2022-11-01T00:25:52.571Z,1005.07
2022-11-01T00:26:52.540Z,1005.08
2022-11-01T00:27:52.534Z,1005.01
2022-11-01T00:28:52.513Z,1005.01
2022-11-01T00:29:52.541Z,1005.02
2022-11-01T00:30:52.513Z,1005.00
2022-11-01T00:31:52.490Z,1005.00
2022-11-01T00:32:52.473Z,1004.96
2022-11-01T00:33:52.468Z,1004.96
2022-11-01T00:34:52.451Z,1004.98
2022-11-01T00:35:52.461Z,1005.04
2022-11-01T00:36:52.443Z,1004.97
2022-11-01T00:37:52.426Z,1004.97
2022-11-01T00:38:52.412Z,1004.99
2022-11-01T00:39:52.399Z,1005.04
2022-11-01T00:40:52.384Z,1004.99
2022-11-01T00:41:52.402Z,1004.94
2022-11-01T00:42:52.362Z,1004.95
2022-11-01T00:43:52.353Z,1004.93
2022-11-01T00:44:52.347Z,1004.89
2022-11-01T00:45:52.335Z,1004.84
2022-11-01T00:46:52.338Z,1004.88
2022-11-01T00:47:52.315Z,1004.91
2022-11-01T00:48:52.296Z,1004.94
2022-11-01T00:49:52.317Z,1004.90
2022-11-01T00:50:52.275Z,1004.88
2022-11-01T00:51:52.280Z,1004.85
2022-11-01T00:52:52.265Z,1004.80
2022-11-01T00:53:52.247Z,1004.86
2022-11-01T00:54:52.234Z,1004.78
2022-11-01T00:55:52.244Z,1004.83
2022-11-01T00:56:52.216Z,1004.82
2022-11-01T00:57:52.207Z,1004.81
2022-11-01T00:58:52.187Z,1004.79
2022-11-01T01:00:52.198Z,1004.65
2022-11-01T01:01:52.311Z,1004.67
2022-11-01T01:02:52.146Z,1004.64
2022-11-01T01:03:52.136Z,1004.65
2022-11-01T01:04:52.125Z,1004.60
2022-11-01T01:05:52.107Z,1004.53
2022-11-01T01:06:52.118Z,1004.55
2022-11-01T01:07:52.221Z,1004.58
2022-11-01T01:08:52.098Z,1004.53
2022-11-01T01:09:52.068Z,1004.47
2022-11-01T01:10:52.057Z,1004.50
2022-11-01T01:11:52.068Z,1004.45
2022-11-01T01:12:52.037Z,1004.40
2022-11-01T01:13:52.143Z,1004.36
2022-11-01T01:14:52.008Z,1004.38
2022-11-01T01:15:51.999Z,1004.33
2022-11-01T01:16:52.012Z,1004.29
2022-11-01T01:17:51.989Z,1004.28
2022-11-01T01:18:51.968Z,1004.25
2022-11-01T01:19:51.987Z,1004.29
2022-11-01T01:20:51.949Z,1004.27
2022-11-01T01:21:51.939Z,1004.22
2022-11-01T01:22:51.921Z,1004.20
2022-11-01T01:23:51.939Z,1004.16
2022-11-01T01:24:51.911Z,1004.15
2022-11-01T01:25:51.900Z,1004.05
2022-11-01T01:26:51.879Z,1004.04
2022-11-01T01:27:51.899Z,1004.10
2022-11-01T01:28:51.891Z,1004.12
2022-11-01T01:29:51.850Z,1004.15
2022-11-01T01:30:51.839Z,1004.11
2022-11-01T01:31:51.821Z,1004.11
2022-11-01T01:32:51.820Z,1004.07
2022-11-01T01:33:51.827Z,1004.09
2022-11-01T01:34:51.790Z,1004.08
2022-11-01T01:35:51.783Z,1004.12
2022-11-01T01:36:51.771Z,1004.16
2022-11-01T01:37:51.761Z,1004.15
2022-11-01T01:38:51.772Z,1004.16
2022-11-01T01:39:51.741Z,1004.16
2022-11-01T01:40:51.731Z,1004.17
2022-11-01T01:41:51.723Z,1004.08
2022-11-01T01:42:51.701Z,1004.06
2022-11-01T01:43:51.721Z,1003.97
2022-11-01T01:44:51.681Z,1003.95
2022-11-01T01:45:51.672Z,1003.89
2022-11-01T01:46:51.664Z,1003.90
2022-11-01T01:47:51.654Z,1003.79
2022-11-01T01:48:51.664Z,1003.78
2022-11-01T01:50:51.623Z,1003.77
2022-11-01T01:51:51.604Z,1003.86
2022-11-01T01:52:51.592Z,1003.83
2022-11-01T01:53:51.586Z,1003.84
2022-11-01T01:54:51.594Z,1003.87
2022-11-01T01:55:51.564Z,1003.90
2022-11-01T01:56:51.559Z,1003.97
2022-11-01T01:57:51.543Z,1003.91
2022-11-01T01:58:51.524Z,1003.90
2022-11-01T01:59:51.546Z,1003.90
2022-11-01T02:00:51.529Z,1003.93
2022-11-01T02:01:51.704Z,1003.96
2022-11-01T02:02:51.486Z,1003.96
2022-11-01T02:03:51.477Z,1004.04
2022-11-01T02:04:51.484Z,1003.99
2022-11-01T02:05:51.461Z,1003.96
2022-11-01T02:06:51.465Z,1004.00
2022-11-01T02:07:51.429Z,1004.02
2022-11-01T02:08:51.421Z,1003.98
2022-11-01T02:09:51.428Z,1003.96
2022-11-01T02:10:51.397Z,1003.93
2022-11-01T02:11:51.389Z,1003.92
2022-11-01T02:12:51.376Z,1003.84
2022-11-01T02:13:51.387Z,1003.80
2022-11-01T02:14:51.356Z,1003.75
2022-11-01T02:15:51.374Z,1003.77
2022-11-01T02:16:51.328Z,1003.75
2022-11-01T02:17:51.327Z,1003.75
2022-11-01T02:18:51.329Z,1003.72
2022-11-01T02:19:51.299Z,1003.70
2022-11-01T02:20:51.290Z,1003.71
2022-11-01T02:21:51.279Z,1003.64
2022-11-01T02:22:51.271Z,1003.57
2022-11-01T02:23:51.279Z,1003.55
2022-11-01T02:24:51.270Z,1003.59
2022-11-01T02:25:51.237Z,1003.63
2022-11-01T02:26:51.223Z,1003.61
2022-11-01T02:27:51.210Z,1003.58
2022-11-01T02:28:51.209Z,1003.64
2022-11-01T02:29:51.221Z,1003.61
2022-11-01T02:30:51.198Z,1003.63
2022-11-01T02:31:51.169Z,1003.65
2022-11-01T02:32:51.173Z,1003.69
2022-11-01T02:33:51.152Z,1003.65
2022-11-01T02:34:51.140Z,1003.69
2022-11-01T02:35:51.147Z,1003.69
2022-11-01T02:36:51.120Z,1003.71
2022-11-01T02:37:51.103Z,1003.72
2022-11-01T02:38:51.081Z,1003.76
2022-11-01T02:39:51.082Z,1003.71
2022-11-01T02:40:51.092Z,1003.73
2022-11-01T02:41:51.060Z,1003.69
2022-11-01T02:42:51.043Z,1003.68
2022-11-01T02:43:51.061Z,1003.68
2022-11-01T02:44:51.020Z,1003.65
2022-11-01T02:45:51.015Z,1003.65
2022-11-01T02:46:51.002Z,1003.63
2022-11-01T02:47:50.995Z,1003.69
2022-11-01T02:48:51.001Z,1003.69
2022-11-01T02:49:50.972Z,1003.72
2022-11-01T02:50:50.963Z,1003.73
2022-11-01T02:51:50.954Z,1003.76
2022-11-01T02:52:50.933Z,1003.70
2022-11-01T02:53:50.926Z,1003.73
2022-11-01T02:54:50.932Z,1003.75
2022-11-01T02:55:50.927Z,1003.71
2022-11-01T02:56:50.898Z,1003.77
2022-11-01T02:57:50.884Z,1003.79
2022-11-01T02:58:50.873Z,1003.81
2022-11-01T02:59:50.886Z,1003.80
2022-11-01T03:00:50.919Z,1003.81
2022-11-01T03:01:50.885Z,1003.77
2022-11-01T03:02:50.824Z,1003.72
2022-11-01T03:03:50.814Z,1003.71
2022-11-01T03:04:50.856Z,1003.74
2022-11-01T03:05:50.787Z,1003.77
2022-11-01T03:06:50.796Z,1003.76
2022-11-01T03:07:50.773Z,1003.75
2022-11-01T03:08:50.763Z,1003.73
2022-11-01T03:09:50.785Z,1003.77
2022-11-01T03:10:50.757Z,1003.75
2022-11-01T03:11:50.725Z,1003.79
2022-11-01T03:12:50.718Z,1003.80
2022-11-01T03:13:50.706Z,1003.79
2022-11-01T03:14:50.699Z,1003.80
2022-11-01T03:15:50.707Z,1003.84
2022-11-01T03:16:50.677Z,1003.82
2022-11-01T03:17:50.666Z,1003.82
2022-11-01T03:18:50.648Z,1003.76
2022-11-01T03:19:50.670Z,1003.79
2022-11-01T03:20:50.634Z,1003.78
2022-11-01T03:21:50.631Z,1003.73
2022-11-01T03:22:50.616Z,1003.77
2022-11-01T03:23:50.597Z,1003.73
2022-11-01T03:24:50.609Z,1003.71
2022-11-01T03:25:50.569Z,1003.74
2022-11-01T03:26:50.592Z,1003.75
2022-11-01T03:27:50.549Z,1003.76
2022-11-01T03:28:50.567Z,1003.74
2022-11-01T03:29:50.529Z,1003.70
2022-11-01T03:30:50.538Z,1003.70
2022-11-01T03:31:50.501Z,1003.75
2022-11-01T03:32:50.498Z,1003.73
2022-11-01T03:33:50.480Z,1003.73
2022-11-01T03:34:50.472Z,1003.79
2022-11-01T03:35:50.459Z,1003.79
2022-11-01T03:36:50.472Z,1003.79
2022-11-01T03:37:50.440Z,1003.73
2022-11-01T03:38:50.429Z,1003.72
2022-11-01T03:39:50.417Z,1003.73
2022-11-01T03:40:50.412Z,1003.70
2022-11-01T03:41:50.391Z,1003.72
2022-11-01T03:42:50.410Z,1003.75
2022-11-01T03:43:50.382Z,1003.72
2022-11-01T03:44:50.361Z,1003.71
2022-11-01T03:45:50.350Z,1003.73
2022-11-01T03:46:50.375Z,1003.75
2022-11-01T03:47:50.334Z,1003.79
2022-11-01T03:48:50.320Z,1003.80
2022-11-01T03:49:50.313Z,1003.82
2022-11-01T03:50:50.298Z,1003.83
2022-11-01T03:51:50.282Z,1003.73
2022-11-01T03:52:50.310Z,1003.76
2022-11-01T03:53:50.268Z,1003.77
2022-11-01T03:54:50.261Z,1003.77
2022-11-01T03:55:50.240Z,1003.79
2022-11-01T03:56:50.236Z,1003.75
2022-11-01T03:57:50.253Z,1003.77
2022-11-01T03:58:50.213Z,1003.84
2022-11-01T03:59:50.194Z,1003.88
2022-11-01T04:00:50.210Z,1003.86
2022-11-01T04:01:50.367Z,1003.88
2022-11-01T04:02:50.163Z,1003.92
2022-11-01T04:03:50.182Z,1003.93
2022-11-01T04:04:50.146Z,1003.98
2022-11-01T04:05:50.134Z,1003.96
2022-11-01T04:06:50.125Z,1003.96
2022-11-01T04:07:50.133Z,1003.97
2022-11-01T04:08:50.102Z,1003.93
2022-11-01T04:09:50.085Z,1003.95
2022-11-01T04:10:50.085Z,1003.99
2022-11-01T04:11:50.067Z,1004.02
2022-11-01T04:12:50.084Z,1004.02
2022-11-01T04:13:50.049Z,1004.02
2022-11-01T04:14:50.035Z,1004.03
2022-11-01T04:15:50.017Z,1004.05
2022-11-01T04:16:50.017Z,1004.08
2022-11-01T04:17:49.998Z,1004.10
2022-11-01T04:18:50.016Z,1004.08
2022-11-01T04:19:49.977Z,1004.07
2022-11-01T04:20:49.979Z,1004.05
2022-11-01T04:21:49.961Z,1004.08
2022-11-01T04:22:49.949Z,1004.12
2022-11-01T04:23:50.459Z,1004.09
2022-11-01T04:24:49.927Z,1004.16
2022-11-01T04:25:49.910Z,1004.12
2022-11-01T04:26:49.899Z,1004.17
2022-11-01T04:27:49.888Z,1004.12
2022-11-01T04:28:49.885Z,1004.11
2022-11-01T04:29:49.906Z,1004.11
2022-11-01T04:30:49.860Z,1004.10
2022-11-01T04:31:49.857Z,1004.14
2022-11-01T04:32:49.841Z,1004.18
2022-11-01T04:33:49.831Z,1004.16
2022-11-01T04:34:49.840Z,1004.17
2022-11-01T04:35:49.809Z,1004.18
2022-11-01T04:36:49.790Z,1004.18
2022-11-01T04:37:49.790Z,1004.22
2022-11-01T04:38:49.769Z,1004.23
2022-11-01T04:39:49.760Z,1004.25
2022-11-01T04:40:49.784Z,1004.28
2022-11-01T04:41:49.739Z,1004.30
2022-11-01T04:42:49.720Z,1004.28
2022-11-01T04:43:49.713Z,1004.25
2022-11-01T04:44:49.712Z,1004.30
2022-11-01T04:45:49.722Z,1004.31
2022-11-01T04:46:49.681Z,1004.27
2022-11-01T04:47:49.672Z,1004.31
2022-11-01T04:48:49.661Z,1004.28
2022-11-01T04:49:49.653Z,1004.25
2022-11-01T04:50:49.662Z,1004.28
2022-11-01T04:51:49.630Z,1004.30
2022-11-01T04:52:49.613Z,1004.31
2022-11-01T04:53:49.608Z,1004.23
2022-11-01T04:54:49.594Z,1004.25
2022-11-01T04:55:49.605Z,1004.25
2022-11-01T04:56:49.581Z,1004.23
2022-11-01T04:57:49.565Z,1004.27
2022-11-01T04:58:49.544Z,1004.29
2022-11-01T04:59:49.541Z,1004.29
2022-11-01T05:00:49.687Z,1004.31
2022-11-01T05:01:49.617Z,1004.35
2022-11-01T05:02:49.503Z,1004.33
2022-11-01T05:03:49.502Z,1004.32
2022-11-01T05:04:49.484Z,1004.35
2022-11-01T05:05:49.501Z,1004.36
2022-11-01T05:06:49.468Z,1004.35
2022-11-01T05:07:49.481Z,1004.34
2022-11-01T05:08:49.442Z,1004.32
2022-11-01T05:09:49.436Z,1004.33
2022-11-01T05:10:49.439Z,1004.28
2022-11-01T05:11:49.413Z,1004.28
2022-11-01T05:12:49.394Z,1004.25
2022-11-01T05:13:49.393Z,1004.31
2022-11-01T05:14:54.319Z,1004.32
2022-11-01T05:16:06.550Z,1004.38
2022-11-01T05:16:50.354Z,1004.41
2022-11-01T05:17:49.345Z,1004.39
2022-11-01T05:18:49.580Z,1004.41
2022-11-01T05:19:49.346Z,1004.39
2022-11-01T05:20:49.306Z,1004.39
2022-11-01T05:21:56.515Z,1004.46
2022-11-01T05:22:49.672Z,1004.38
2022-11-01T05:23:49.417Z,1004.40
2022-11-01T05:24:49.354Z,1004.41
2022-11-01T05:25:49.743Z,1004.42
2022-11-01T05:26:49.665Z,1004.44
2022-11-01T05:27:49.626Z,1004.42
2022-11-01T05:28:49.352Z,1004.41
2022-11-01T05:29:49.264Z,1004.41
2022-11-01T05:30:49.554Z,1004.46
2022-11-01T05:31:51.804Z,1004.43
2022-11-01T05:32:50.183Z,1004.41
2022-11-01T05:33:50.615Z,1004.46
2022-11-01T05:34:50.042Z,1004.44
2022-11-01T05:35:49.248Z,1004.49
2022-11-01T05:36:49.253Z,1004.46
2022-11-01T05:37:49.242Z,1004.42
2022-11-01T05:38:49.397Z,1004.50
2022-11-01T05:39:49.141Z,1004.48
2022-11-01T05:40:49.246Z,1004.55
2022-11-01T05:41:49.214Z,1004.55
2022-11-01T05:42:49.067Z,1004.57
2022-11-01T05:43:49.075Z,1004.61
2022-11-01T05:44:49.045Z,1004.58
2022-11-01T05:45:49.033Z,1004.56
2022-11-01T05:46:49.048Z,1004.53
2022-11-01T05:47:49.015Z,1004.59
2022-11-01T05:48:49.001Z,1004.54
2022-11-01T05:49:48.996Z,1004.59
2022-11-01T05:50:49.004Z,1004.61
2022-11-01T05:51:50.354Z,1004.62
2022-11-01T05:52:48.958Z,1004.66
2022-11-01T05:53:48.967Z,1004.61
2022-11-01T05:54:48.976Z,1004.69
2022-11-01T05:55:48.925Z,1004.69
2022-11-01T05:56:48.908Z,1004.76
2022-11-01T05:58:48.912Z,1004.72
2022-11-01T05:59:48.884Z,1004.77
2022-11-01T06:00:48.866Z,1004.82
2022-11-01T06:01:48.979Z,1004.78
2022-11-01T06:02:48.920Z,1004.84
2022-11-01T06:03:48.839Z,1004.83
2022-11-01T06:04:48.858Z,1004.88
2022-11-01T06:05:48.878Z,1004.91
2022-11-01T06:06:48.830Z,1004.85
2022-11-01T06:07:48.799Z,1004.92
2022-11-01T06:08:48.781Z,1005.00
2022-11-01T06:09:48.777Z,1004.90
2022-11-01T06:10:48.759Z,1005.00
2022-11-01T06:11:48.749Z,1004.96
2022-11-01T06:12:48.817Z,1005.00
2022-11-01T06:13:48.731Z,1004.97
2022-11-01T06:14:48.719Z,1005.06
2022-11-01T06:15:48.710Z,1004.99
2022-11-01T06:16:48.704Z,1005.01
2022-11-01T06:17:48.680Z,1005.08
2022-11-01T06:18:48.700Z,1005.05
2022-11-01T06:19:48.659Z,1005.04
2022-11-01T06:20:48.650Z,1005.04
2022-11-01T06:21:48.661Z,1005.08
2022-11-01T06:22:48.623Z,1005.07
2022-11-01T06:23:48.674Z,1005.10
2022-11-01T06:24:48.601Z,1005.11
2022-11-01T06:25:48.601Z,1005.10
2022-11-01T06:26:48.600Z,1005.08
2022-11-01T06:27:48.573Z,1005.17
2022-11-01T06:28:48.584Z,1005.21
2022-11-01T06:29:48.554Z,1005.26
2022-11-01T06:30:48.580Z,1005.27
2022-11-01T06:31:48.534Z,1005.28
2022-11-01T06:32:48.522Z,1005.38
2022-11-01T06:33:48.592Z,1005.36
2022-11-01T06:34:48.492Z,1005.41
2022-11-01T06:35:48.543Z,1005.44
2022-11-01T06:36:48.483Z,1005.45
2022-11-01T06:37:48.462Z,1005.40
2022-11-01T06:38:48.482Z,1005.47
2022-11-01T06:39:48.594Z,1005.36
2022-11-01T06:40:48.434Z,1005.36
2022-11-01T06:41:48.424Z,1005.46
2022-11-01T06:42:48.404Z,1005.49
2022-11-01T06:43:48.455Z,1005.44
2022-11-01T06:44:48.385Z,1005.48
2022-11-01T06:45:48.375Z,1005.54
2022-11-01T06:46:48.385Z,1005.55
2022-11-01T06:47:48.361Z,1005.52
2022-11-01T06:48:48.365Z,1005.57
2022-11-01T06:49:48.336Z,1005.58
2022-11-01T06:50:48.337Z,1005.60
2022-11-01T06:51:48.315Z,1005.64
2022-11-01T06:52:48.295Z,1005.68
2022-11-01T06:53:48.286Z,1005.70
2022-11-01T06:54:48.306Z,1005.66
2022-11-01T06:55:48.368Z,1005.68
2022-11-01T06:56:48.257Z,1005.73
2022-11-01T06:57:48.246Z,1005.73
2022-11-01T06:58:48.230Z,1005.78
2022-11-01T06:59:48.218Z,1005.80
2022-11-01T07:00:48.272Z,1005.86
2022-11-01T07:01:48.346Z,1005.87
2022-11-01T07:02:48.248Z,1005.84
2022-11-01T07:03:48.178Z,1005.84
2022-11-01T07:04:48.166Z,1005.93
2022-11-01T07:05:48.159Z,1005.84
2022-11-01T07:06:48.161Z,1005.99
2022-11-01T07:07:48.130Z,1005.97
2022-11-01T07:08:48.119Z,1006.07
2022-11-01T07:09:48.109Z,1006.09
2022-11-01T07:10:48.118Z,1006.09
2022-11-01T07:11:48.089Z,1006.16
2022-11-01T07:12:48.079Z,1006.08
2022-11-01T07:13:48.068Z,1006.18
2022-11-01T07:14:48.063Z,1006.22
2022-11-01T07:15:48.061Z,1006.32
2022-11-01T07:16:48.092Z,1006.28
2022-11-01T07:17:48.020Z,1006.27
2022-11-01T07:18:48.026Z,1006.27
2022-11-01T07:19:48.007Z,1006.35
2022-11-01T07:20:48.002Z,1006.36
2022-11-01T07:21:48.003Z,1006.28
2022-11-01T07:22:47.971Z,1006.45
2022-11-01T07:23:47.961Z,1006.42
2022-11-01T07:24:47.951Z,1006.42
2022-11-01T07:25:47.931Z,1006.36
2022-11-01T07:26:47.951Z,1006.39
2022-11-01T07:27:47.913Z,1006.47
2022-11-01T07:28:47.902Z,1006.49
2022-11-01T07:29:47.891Z,1006.48
2022-11-01T07:30:47.884Z,1006.56
2022-11-01T07:31:47.869Z,1006.56
2022-11-01T07:32:47.875Z,1006.61
2022-11-01T07:33:47.853Z,1006.52
2022-11-01T07:34:47.835Z,1006.56
2022-11-01T07:35:47.824Z,1006.58
2022-11-01T07:36:47.814Z,1006.67
2022-11-01T07:37:47.823Z,1006.71
2022-11-01T07:38:47.794Z,1006.83
2022-11-01T07:39:47.776Z,1006.78
2022-11-01T07:40:47.774Z,1006.69
2022-11-01T07:41:47.755Z,1006.88
2022-11-01T07:42:47.760Z,1006.89
2022-11-01T07:43:47.759Z,1006.95
2022-11-01T07:44:47.733Z,1006.93
2022-11-01T07:45:47.717Z,1006.89
2022-11-01T07:46:47.707Z,1007.03
2022-11-01T07:47:47.695Z,1007.14
2022-11-01T07:48:47.706Z,1007.10
2022-11-01T07:49:47.675Z,1007.12
2022-11-01T07:50:47.669Z,1007.07
2022-11-01T07:51:47.650Z,1007.16
2022-11-01T07:52:47.645Z,1007.21
2022-11-01T07:53:47.689Z,1007.33
2022-11-01T07:54:47.617Z,1007.20
2022-11-01T07:55:47.614Z,1007.29
2022-11-01T07:56:47.595Z,1007.31
2022-11-01T07:57:47.589Z,1007.26
2022-11-01T07:58:47.587Z,1007.29
2022-11-01T07:59:47.557Z,1007.33
2022-11-01T08:00:47.588Z,1007.32
2022-11-01T08:01:47.685Z,1007.42
2022-11-01T08:02:47.537Z,1007.48
2022-11-01T08:03:47.541Z,1007.21
2022-11-01T08:04:47.508Z,1007.35
2022-11-01T08:05:47.501Z,1007.31
2022-11-01T08:06:49.769Z,1007.40
2022-11-01T08:07:47.477Z,1007.32
2022-11-01T08:08:47.470Z,1007.29
2022-11-01T08:09:47.470Z,1007.38
2022-11-01T08:10:47.492Z,1007.34
2022-11-01T08:11:47.439Z,1007.44
2022-11-01T08:12:47.579Z,1007.71
2022-11-01T08:13:47.410Z,1007.46
2022-11-01T08:14:47.425Z,1007.53
2022-11-01T08:15:47.393Z,1007.47
2022-11-01T08:16:47.373Z,1007.50
2022-11-01T08:17:47.361Z,1007.48
2022-11-01T08:18:47.352Z,1007.46
2022-11-01T08:19:47.361Z,1007.54
2022-11-01T08:20:47.330Z,1007.57
2022-11-01T08:21:47.320Z,1007.60
2022-11-01T08:22:47.315Z,1007.59
2022-11-01T08:23:47.305Z,1007.55
2022-11-01T08:24:47.334Z,1007.67
2022-11-01T08:25:47.284Z,1007.72
2022-11-01T08:26:47.272Z,1007.69
2022-11-01T08:27:47.371Z,1007.72
2022-11-01T08:28:47.242Z,1007.70
2022-11-01T08:29:47.231Z,1007.74
2022-11-01T08:30:47.251Z,1007.79
2022-11-01T08:31:47.214Z,1007.74
2022-11-01T08:32:47.219Z,1007.78
2022-11-01T08:33:47.213Z,1007.80
2022-11-01T08:34:47.294Z,1007.84
2022-11-01T08:35:50.488Z,1007.83
2022-11-01T08:36:47.163Z,1007.92
2022-11-01T08:37:47.144Z,1007.78
2022-11-01T08:38:47.138Z,1007.93
2022-11-01T08:39:47.144Z,1007.82
2022-11-01T08:40:47.122Z,1007.94
2022-11-01T08:41:47.096Z,1007.89
2022-11-01T08:42:47.099Z,1007.89
2022-11-01T08:43:47.076Z,1007.91
2022-11-01T08:44:47.074Z,1008.01
2022-11-01T08:45:47.088Z,1007.99
2022-11-01T08:46:47.047Z,1008.07
2022-11-01T08:47:47.040Z,1008.00
2022-11-01T08:48:47.026Z,1008.05
2022-11-01T08:49:47.016Z,1008.07
2022-11-01T08:50:47.025Z,1008.13
2022-11-01T08:51:46.996Z,1008.11
2022-11-01T08:52:46.978Z,1008.10
2022-11-01T08:53:46.969Z,1008.13
2022-11-01T08:54:46.958Z,1008.06
2022-11-01T08:56:46.986Z,1008.07
2022-11-01T08:57:46.936Z,1008.09
2022-11-01T08:58:46.918Z,1008.18
2022-11-01T08:59:46.907Z,1008.13
2022-11-01T09:00:46.936Z,1008.23
2022-11-01T09:01:46.975Z,1008.23
2022-11-01T09:02:46.876Z,1008.19
2022-11-01T09:03:46.868Z,1008.20
2022-11-01T09:04:46.859Z,1008.32
2022-11-01T09:05:46.837Z,1008.23
2022-11-01T09:06:46.860Z,1008.33
2022-11-01T09:07:46.820Z,1008.26
2022-11-01T09:08:46.811Z,1008.26
2022-11-01T09:09:46.812Z,1008.32
2022-11-01T09:10:46.791Z,1008.38
2022-11-01T09:11:46.840Z,1008.32
2022-11-01T09:12:46.871Z,1008.39
2022-11-01T09:13:46.750Z,1008.42
2022-11-01T09:14:46.740Z,1008.44
2022-11-01T09:15:46.755Z,1008.40
2022-11-01T09:16:46.721Z,1008.41
2022-11-01T09:17:46.718Z,1008.44
2022-11-01T09:18:46.726Z,1008.46
2022-11-01T09:19:46.705Z,1008.47
2022-11-01T09:20:46.697Z,1008.52
2022-11-01T09:21:46.668Z,1008.53
2022-11-01T09:22:46.654Z,1008.62
2022-11-01T09:23:46.664Z,1008.53
2022-11-01T09:24:46.635Z,1008.56
2022-11-01T09:25:46.622Z,1008.57
2022-11-01T09:26:46.612Z,1008.54
2022-11-01T09:27:46.599Z,1008.56
2022-11-01T09:28:46.584Z,1008.60
2022-11-01T09:29:49.411Z,1008.57
2022-11-01T09:30:49.780Z,1008.67
2022-11-01T09:31:47.554Z,1008.55
2022-11-01T09:32:46.545Z,1008.63
2022-11-01T09:33:46.535Z,1008.61
2022-11-01T09:34:46.547Z,1008.53
2022-11-01T09:35:50.275Z,1008.60
2022-11-01T09:36:47.517Z,1008.51
2022-11-01T09:37:46.486Z,1008.56
2022-11-01T09:38:46.481Z,1008.53
2022-11-01T09:39:46.486Z,1008.55
2022-11-01T09:40:46.457Z,1008.58
2022-11-01T09:41:46.437Z,1008.57
2022-11-01T09:42:46.441Z,1008.58
2022-11-01T09:43:46.427Z,1008.65
2022-11-01T09:44:46.445Z,1008.58
2022-11-01T09:45:46.398Z,1008.74
2022-11-01T09:46:46.392Z,1008.61
2022-11-01T09:47:46.376Z,1008.63
2022-11-01T09:48:46.375Z,1008.61
2022-11-01T09:49:46.378Z,1008.59
2022-11-01T09:50:46.348Z,1008.62
2022-11-01T09:51:46.338Z,1008.65
2022-11-01T09:52:46.319Z,1008.69
2022-11-01T09:53:46.309Z,1008.60
2022-11-01T09:54:46.321Z,1008.75
2022-11-01T09:55:46.289Z,1008.74
2022-11-01T09:56:46.307Z,1008.71
2022-11-01T09:57:46.267Z,1008.77
2022-11-01T09:58:46.260Z,1008.74
2022-11-01T09:59:46.258Z,1008.75
2022-11-01T10:00:46.272Z,1008.77
2022-11-01T10:01:46.350Z,1008.67
2022-11-01T10:02:46.212Z,1008.86
2022-11-01T10:03:46.200Z,1008.82
2022-11-01T10:04:46.191Z,1008.88
2022-11-01T10:05:46.185Z,1008.82
2022-11-01T10:06:46.205Z,1008.87
2022-11-01T10:07:46.161Z,1008.79
2022-11-01T10:08:46.171Z,1008.78
2022-11-01T10:09:46.163Z,1008.86
2022-11-01T10:10:46.130Z,1008.89
2022-11-01T10:11:46.182Z,1008.84
2022-11-01T10:12:46.136Z,1008.84
2022-11-01T10:13:46.105Z,1008.93
2022-11-01T10:14:46.103Z,1008.94
2022-11-01T10:15:46.095Z,1008.84
2022-11-01T10:16:46.063Z,1008.90
2022-11-01T10:17:50.918Z,1008.81
2022-11-01T10:18:47.043Z,1008.88
2022-11-01T10:19:46.023Z,1008.90
2022-11-01T10:20:46.042Z,1008.94
2022-11-01T10:21:46.008Z,1008.93
2022-11-01T10:22:45.996Z,1008.90
2022-11-01T10:23:45.986Z,1008.90
2022-11-01T10:24:46.005Z,1008.97
2022-11-01T10:25:45.985Z,1008.92
2022-11-01T10:26:45.958Z,1008.90
2022-11-01T10:27:45.935Z,1008.88
2022-11-01T10:28:45.937Z,1008.95
2022-11-01T10:29:45.917Z,1008.95
2022-11-01T10:30:45.907Z,1008.84
2022-11-01T10:31:45.928Z,1008.87
2022-11-01T10:32:45.890Z,1008.86
2022-11-01T10:33:45.879Z,1008.95
2022-11-01T10:34:45.870Z,1008.94
2022-11-01T10:35:45.849Z,1008.92
2022-11-01T10:36:45.853Z,1008.89
2022-11-01T10:37:57.416Z,1008.95
2022-11-01T10:39:23.336Z,1008.92
2022-11-01T10:39:56.460Z,1008.80
2022-11-01T10:40:46.801Z,1009.01
2022-11-01T10:41:45.792Z,1008.93
2022-11-01T10:42:45.811Z,1008.96
2022-11-01T10:43:45.768Z,1008.80
2022-11-01T10:44:45.758Z,1008.82
2022-11-01T10:45:47.789Z,1008.84
2022-11-01T10:46:45.733Z,1008.83
2022-11-01T10:47:45.763Z,1008.97
2022-11-01T10:48:45.712Z,1008.83
2022-11-01T10:50:04.759Z,1008.78
2022-11-01T10:50:46.692Z,1008.84
2022-11-01T10:51:45.682Z,1008.94
2022-11-01T10:52:45.671Z,1008.87
2022-11-01T10:53:45.682Z,1008.89
2022-11-01T10:54:45.653Z,1008.83
2022-11-01T10:55:45.635Z,1008.84
2022-11-01T10:56:45.632Z,1008.87
2022-11-01T10:57:45.649Z,1009.01
2022-11-01T10:58:45.607Z,1008.88
2022-11-01T10:59:45.616Z,1008.96
2022-11-01T11:00:45.649Z,1008.91
2022-11-01T11:01:45.751Z,1008.88
2022-11-01T11:02:45.586Z,1008.99
2022-11-01T11:03:45.547Z,1008.88
2022-11-01T11:04:45.601Z,1008.93
2022-11-01T11:05:45.544Z,1009.00
2022-11-01T11:06:45.517Z,1008.96
2022-11-01T11:07:45.508Z,1008.95
2022-11-01T11:08:45.496Z,1008.98
2022-11-01T11:09:45.584Z,1008.87
2022-11-01T11:10:45.477Z,1008.93
2022-11-01T11:11:45.468Z,1008.94
2022-11-01T11:12:45.478Z,1008.91
2022-11-01T11:13:45.439Z,1008.97
2022-11-01T11:14:45.450Z,1009.01
2022-11-01T11:15:45.417Z,1008.94
2022-11-01T11:16:45.409Z,1008.93
2022-11-01T11:17:45.393Z,1008.92
2022-11-01T11:18:45.386Z,1008.96
2022-11-01T11:19:45.405Z,1008.97
2022-11-01T11:20:45.402Z,1008.91
2022-11-01T11:21:45.367Z,1008.94
2022-11-01T11:22:53.126Z,1008.92
2022-11-01T11:23:45.331Z,1008.91
2022-11-01T11:24:45.314Z,1008.88
2022-11-01T11:25:45.307Z,1008.95
2022-11-01T11:26:46.574Z,1008.79
2022-11-01T11:27:45.287Z,1008.87
2022-11-01T11:28:45.277Z,1008.83
2022-11-01T11:29:45.303Z,1008.88
2022-11-01T11:30:45.265Z,1008.85
2022-11-01T11:31:45.250Z,1008.80
2022-11-01T11:32:45.243Z,1008.82
2022-11-01T11:33:45.228Z,1008.96
2022-11-01T11:34:45.209Z,1008.86
2022-11-01T11:35:45.225Z,1008.87
2022-11-01T11:36:45.190Z,1008.91
2022-11-01T11:37:45.176Z,1008.87
2022-11-01T11:38:45.199Z,1008.89
2022-11-01T11:39:45.162Z,1008.86
2022-11-01T11:40:45.139Z,1008.90
2022-11-01T11:41:45.131Z,1008.89
2022-11-01T11:42:45.151Z,1008.95
2022-11-01T11:43:45.122Z,1009.11
2022-11-01T11:44:45.101Z,1009.05
2022-11-01T11:45:45.091Z,1009.03
2022-11-01T11:46:45.079Z,1009.03
2022-11-01T11:47:45.099Z,1008.99
2022-11-01T11:48:45.060Z,1009.11
2022-11-01T11:49:45.052Z,1009.00
2022-11-01T11:50:45.042Z,1009.09
2022-11-01T11:51:45.032Z,1009.05
2022-11-01T11:52:45.013Z,1009.10
2022-11-01T11:53:45.025Z,1009.03
2022-11-01T11:54:45.003Z,1009.04
2022-11-01T11:55:44.991Z,1009.01
2022-11-01T11:56:44.966Z,1009.07
2022-11-01T11:57:44.966Z,1009.05
2022-11-01T11:58:44.975Z,1009.09
2022-11-01T12:00:44.936Z,1009.05
2022-11-01T12:01:44.944Z,1009.05
2022-11-01T12:02:44.930Z,1009.07
2022-11-01T12:03:44.926Z,1009.06
2022-11-01T12:04:44.907Z,1009.08
2022-11-01T12:05:44.878Z,1009.04
2022-11-01T12:06:44.880Z,1009.21
2022-11-01T12:07:44.857Z,1009.09
2022-11-01T12:08:44.850Z,1009.24
2022-11-01T12:09:44.863Z,1009.19
2022-11-01T12:10:44.819Z,1009.13